createdAt,value
2022-12-07T00:04:13.399Z,48.43
2022-12-07T00:09:16.189Z,47.46
2022-12-07T00:14:17.816Z,48.41
2022-12-07T00:19:19.322Z,48.76
2022-12-07T00:24:20.788Z,48.58
2022-12-07T00:29:22.801Z,47.77
2022-12-07T00:34:24.307Z,47.85
2022-12-07T00:39:25.765Z,47.41
2022-12-07T00:44:27.298Z,47.67
2022-12-07T00:49:28.761Z,46.91
2022-12-07T00:54:30.283Z,47.67
2022-12-07T00:59:31.735Z,46.12
2022-12-07T01:04:34.912Z,46.21
2022-12-07T01:09:36.227Z,47.01
2022-12-07T01:14:37.671Z,51.58
2022-12-07T01:19:39.115Z,52.13
2022-12-07T01:24:40.573Z,52.57
2022-12-07T01:29:42.018Z,53.42
2022-12-07T01:34:43.462Z,53.36
2022-12-07T01:39:44.907Z,52.58
2022-12-07T01:45:32.442Z,52.31
2022-12-07T01:50:33.884Z,52.28
2022-12-07T01:55:35.761Z,51.15
2022-12-07T02:00:37.215Z,50.70
2022-12-07T02:05:39.224Z,49.94
2022-12-07T02:10:40.813Z,49.97
2022-12-07T02:16:21.130Z,48.59
2022-12-07T02:22:02.113Z,47.71
2022-12-07T02:27:29.472Z,46.43
2022-12-07T02:32:54.267Z,43.48
2022-12-07T02:38:19.476Z,43.90
2022-12-07T02:43:24.483Z,46.59
2022-12-07T02:48:25.936Z,48.83
2022-12-07T02:53:31.166Z,50.08
2022-12-07T02:58:52.255Z,50.38
2022-12-07T03:04:21.250Z,50.20
2022-12-07T03:09:28.265Z,50.46
2022-12-07T03:14:34.972Z,50.95
2022-12-07T03:19:36.440Z,51.02
2022-12-07T03:24:44.087Z,51.61
2022-12-07T03:29:49.005Z,50.95
2022-12-07T03:35:03.994Z,49.99
2022-12-07T03:40:20.568Z,49.77
2022-12-07T03:45:24.299Z,49.20
2022-12-07T03:50:56.583Z,48.85
2022-12-07T03:55:58.026Z,49.00
2022-12-07T04:00:59.462Z,49.75
2022-12-07T04:06:00.920Z,48.29
2022-12-07T04:11:02.429Z,48.75
2022-12-07T04:16:03.988Z,47.99
2022-12-07T04:21:05.463Z,49.07
2022-12-07T04:26:06.917Z,49.59
2022-12-07T04:31:08.403Z,49.70
2022-12-07T04:36:09.884Z,52.07
2022-12-07T04:41:11.341Z,53.10
2022-12-07T04:46:12.831Z,51.00
2022-12-07T04:51:15.599Z,51.09
2022-12-07T04:56:17.185Z,51.30
2022-12-07T05:01:18.738Z,51.01
2022-12-07T05:06:20.204Z,50.97
2022-12-07T05:11:39.507Z,50.41
2022-12-07T05:16:41.281Z,49.92
2022-12-07T05:21:42.764Z,50.80
2022-12-07T05:26:44.682Z,52.18
2022-12-07T05:31:46.687Z,51.73
2022-12-07T05:36:48.360Z,51.43
2022-12-07T05:42:08.096Z,52.16
2022-12-07T05:47:09.677Z,53.60
2022-12-07T05:52:11.156Z,53.36
2022-12-07T05:57:12.608Z,52.34
2022-12-07T06:02:15.431Z,53.03
2022-12-07T06:07:17.049Z,53.33
2022-12-07T06:12:36.579Z,53.24
2022-12-07T06:17:38.025Z,53.24
2022-12-07T06:22:39.480Z,53.26
2022-12-07T06:27:40.957Z,54.66
2022-12-07T06:32:42.401Z,54.26
2022-12-07T06:37:43.863Z,53.55
2022-12-07T06:42:45.417Z,54.27
2022-12-07T06:47:46.880Z,53.12
2022-12-07T06:52:48.799Z,52.52
2022-12-07T06:57:50.255Z,53.90
2022-12-07T07:02:51.822Z,52.74
2022-12-07T07:08:20.933Z,50.75
2022-12-07T07:13:14.825Z,49.95
2022-12-07T07:18:16.296Z,49.96
2022-12-07T07:23:18.028Z,50.53
2022-12-07T07:28:19.563Z,49.04
2022-12-07T07:33:21.030Z,51.05
2022-12-07T07:38:22.486Z,50.54
2022-12-07T07:43:23.943Z,47.01
2022-12-07T07:48:26.248Z,45.51
2022-12-07T07:53:27.713Z,46.17
2022-12-07T07:58:29.175Z,43.39
2022-12-07T08:03:30.634Z,43.94
2022-12-07T08:08:32.291Z,45.63
2022-12-07T08:13:33.758Z,44.01
2022-12-07T08:18:41.170Z,43.54
2022-12-07T08:23:42.661Z,43.76
2022-12-07T08:28:44.379Z,43.96
2022-12-07T08:33:46.965Z,48.29
2022-12-07T08:39:22.667Z,47.72
2022-12-07T08:44:09.901Z,46.61
2022-12-07T08:49:19.150Z,44.78
2022-12-07T08:54:20.760Z,46.35
2022-12-07T08:59:22.221Z,45.76
2022-12-07T09:04:23.687Z,44.82
2022-12-07T09:09:25.164Z,45.63
2022-12-07T09:14:26.615Z,45.65
2022-12-07T09:19:28.074Z,44.20
2022-12-07T09:24:29.523Z,43.94
2022-12-07T09:29:30.973Z,44.39
2022-12-07T09:34:33.111Z,44.64
2022-12-07T09:39:34.626Z,43.08
2022-12-07T09:44:36.089Z,41.78
2022-12-07T09:49:37.540Z,39.11
2022-12-07T09:54:42.189Z,38.80
2022-12-07T09:59:43.652Z,41.11
2022-12-07T10:04:45.116Z,42.74
2022-12-07T10:09:46.584Z,42.54
2022-12-07T10:15:08.202Z,43.29
2022-12-07T10:20:12.787Z,44.87
2022-12-07T10:25:20.935Z,44.91
2022-12-07T10:30:22.393Z,44.67
2022-12-07T10:35:28.871Z,45.45
2022-12-07T10:40:35.304Z,42.93
2022-12-07T10:45:46.892Z,41.41
2022-12-07T10:51:06.398Z,40.77
2022-12-07T10:56:27.926Z,38.96
2022-12-07T11:01:34.533Z,40.07
2022-12-07T11:06:38.976Z,41.54
2022-12-07T11:11:49.785Z,49.92
2022-12-07T11:16:56.933Z,48.18
2022-12-07T11:21:59.546Z,47.20
2022-12-07T11:27:36.124Z,46.94
2022-12-07T11:32:52.400Z,46.68
2022-12-07T11:37:59.107Z,46.54
2022-12-07T11:43:18.611Z,46.14
2022-12-07T11:48:34.160Z,46.10
2022-12-07T11:53:55.552Z,44.45
2022-12-07T11:58:59.808Z,42.39
2022-12-07T12:04:09.877Z,41.07
2022-12-07T12:15:08.598Z,41.99
2022-12-07T12:20:21.959Z,43.06
2022-12-07T12:25:28.608Z,43.03
2022-12-07T12:30:40.164Z,42.37
2022-12-07T12:35:41.676Z,41.03
2022-12-07T12:40:50.017Z,40.09
2022-12-07T12:45:52.500Z,45.63
2022-12-07T12:51:32.286Z,47.74
2022-12-07T12:56:41.943Z,45.83
2022-12-07T13:01:43.868Z,43.60
2022-12-07T13:06:45.335Z,44.14
2022-12-07T13:11:46.840Z,44.36
2022-12-07T13:16:48.382Z,45.70
2022-12-07T13:21:49.875Z,44.58
2022-12-07T13:26:52.401Z,44.85
2022-12-07T13:31:55.570Z,45.74
2022-12-07T13:36:57.181Z,45.01
2022-12-07T13:41:59.844Z,43.90
2022-12-07T13:47:28.592Z,42.93
2022-12-07T13:52:30.914Z,41.99
2022-12-07T13:57:34.874Z,41.45
2022-12-07T14:02:41.207Z,39.55
2022-12-07T14:07:59.550Z,38.75
2022-12-07T14:13:01.570Z,39.97
2022-12-07T14:18:05.454Z,42.47
2022-12-07T14:23:21.431Z,44.83
2022-12-07T14:28:33.118Z,48.76
2022-12-07T14:33:34.616Z,47.79
2022-12-07T14:38:36.108Z,48.57
2022-12-07T14:43:42.029Z,46.89
2022-12-07T14:54:16.160Z,48.12
2022-12-07T14:59:18.177Z,48.43
2022-12-07T15:04:19.743Z,50.09
2022-12-07T15:09:21.250Z,49.62
2022-12-07T15:14:22.741Z,49.62
2022-12-07T15:19:28.896Z,49.78
2022-12-07T15:24:31.199Z,49.05
2022-12-07T15:29:32.677Z,48.29
2022-12-07T15:34:40.109Z,47.68
2022-12-07T15:39:42.171Z,46.48
2022-12-07T15:45:02.503Z,46.05
2022-12-07T15:50:05.249Z,46.53
2022-12-07T15:55:07.195Z,46.04
2022-12-07T16:00:09.782Z,45.06
2022-12-07T16:05:11.231Z,44.38
2022-12-07T16:10:12.700Z,45.36
2022-12-07T16:15:14.164Z,45.79
2022-12-07T16:20:15.637Z,46.11
2022-12-07T16:25:17.141Z,46.60
2022-12-07T16:30:18.615Z,46.36
2022-12-07T16:35:20.073Z,45.05
2022-12-07T16:40:21.557Z,44.46
2022-12-07T16:45:23.242Z,44.90
2022-12-07T16:50:25.620Z,44.40
2022-12-07T16:55:27.070Z,44.14
2022-12-07T17:00:28.587Z,44.29
2022-12-07T17:05:30.142Z,42.95
2022-12-07T17:10:31.627Z,43.25
2022-12-07T17:15:33.072Z,43.22
2022-12-07T17:20:34.551Z,42.49
2022-12-07T17:25:36.003Z,42.75
2022-12-07T17:30:38.814Z,42.64
2022-12-07T17:35:40.267Z,43.36
2022-12-07T17:40:41.736Z,43.66
2022-12-07T17:45:43.231Z,44.13
2022-12-07T17:51:03.277Z,43.81
2022-12-07T17:56:27.622Z,45.88
2022-12-07T18:01:31.300Z,45.61
2022-12-07T18:06:35.809Z,45.86
2022-12-07T18:11:37.283Z,45.56
2022-12-07T18:16:38.801Z,46.16
2022-12-07T18:21:40.452Z,46.32
2022-12-07T18:26:42.039Z,46.45
2022-12-07T18:31:43.912Z,46.81
2022-12-07T18:36:46.764Z,47.66
2022-12-07T18:41:48.583Z,47.37
2022-12-07T18:46:50.044Z,47.17
2022-12-07T18:51:51.507Z,48.03
2022-12-07T18:56:55.401Z,48.63
2022-12-07T19:01:56.913Z,50.07
2022-12-07T19:06:58.414Z,49.38
2022-12-07T19:12:03.220Z,50.38
2022-12-07T19:17:06.485Z,49.64
2022-12-07T19:22:08.366Z,50.25
2022-12-07T19:27:10.109Z,49.75
2022-12-07T19:32:11.676Z,49.73
2022-12-07T19:37:13.394Z,50.40
2022-12-07T19:42:14.848Z,49.83
2022-12-07T19:47:17.428Z,49.25
2022-12-07T19:52:18.885Z,48.89
2022-12-07T19:57:20.330Z,49.11
2022-12-07T20:02:21.851Z,48.77
2022-12-07T20:07:23.350Z,48.70
2022-12-07T20:12:43.237Z,49.06
2022-12-07T20:17:44.698Z,49.00
2022-12-07T20:22:46.143Z,49.20
2022-12-07T20:27:47.612Z,49.60
2022-12-07T20:32:49.483Z,49.99
2022-12-07T20:37:50.940Z,50.47
2022-12-07T20:42:52.398Z,51.51
2022-12-07T20:47:53.930Z,50.25
2022-12-07T20:53:00.370Z,51.11
2022-12-07T20:58:02.254Z,50.98
2022-12-07T21:03:04.558Z,50.08
2022-12-07T21:08:06.157Z,51.16
2022-12-07T21:13:07.648Z,49.95
2022-12-07T21:18:09.114Z,50.40
2022-12-07T21:23:10.576Z,50.41
2022-12-07T21:28:12.027Z,50.20
2022-12-07T21:33:13.588Z,49.83
2022-12-07T21:38:15.060Z,50.74
2022-12-07T21:43:16.522Z,51.61
2022-12-07T21:48:18.000Z,51.26
2022-12-07T21:53:19.448Z,52.69
2022-12-07T21:58:20.913Z,52.26
2022-12-07T22:03:22.407Z,52.60
2022-12-07T22:08:23.978Z,52.18
2022-12-07T22:13:45.448Z,52.59
2022-12-07T22:18:46.910Z,51.67
2022-12-07T22:23:48.380Z,51.95
2022-12-07T22:28:49.870Z,51.10
2022-12-07T22:33:51.328Z,51.98
2022-12-07T22:38:52.789Z,53.62
2022-12-07T22:43:54.341Z,53.63
2022-12-07T22:48:55.805Z,53.84
2022-12-07T22:53:59.532Z,53.40
2022-12-07T22:59:01.084Z,51.85
2022-12-07T23:04:02.705Z,53.93
2022-12-07T23:09:06.111Z,54.92
2022-12-07T23:14:19.055Z,55.92
2022-12-07T23:19:20.520Z,55.55
2022-12-07T23:24:21.977Z,54.86
2022-12-07T23:29:23.430Z,55.45
2022-12-07T23:34:24.893Z,55.29
2022-12-07T23:39:26.350Z,55.01
2022-12-07T23:44:27.860Z,55.30
2022-12-07T23:49:29.344Z,54.56
2022-12-07T23:54:30.800Z,53.41
2022-12-07T23:59:32.256Z,52.91
